sensor_id;sensor_type;location;lat;lon;timestamp;pressure;altitude;pressure_sealevel;temperature;humidity
58690;BME280;44470;53.206;-6.106;2022-11-15T00:00:11;99029.66;;;19.26;57.74
58690;BME280;44470;53.206;-6.106;2022-11-15T00:02:55;99017.88;;;19.31;57.77
58690;BME280;44470;53.206;-6.106;2022-11-15T00:05:39;99016.28;;;19.27;57.96
58690;BME280;44470;53.206;-6.106;2022-11-15T00:08:23;99007.34;;;19.28;57.80
58690;BME280;44470;53.206;-6.106;2022-11-15T00:11:10;99002.16;;;19.25;57.93
58690;BME280;44470;53.206;-6.106;2022-11-15T00:13:57;99009.06;;;19.29;57.82
58690;BME280;44470;53.206;-6.106;2022-11-15T00:16:41;98992.19;;;19.29;57.75
58690;BME280;44470;53.206;-6.106;2022-11-15T00:19:25;98996.81;;;19.25;57.71
58690;BME280;44470;53.206;-6.106;2022-11-15T00:22:09;99002.16;;;19.25;57.96
58690;BME280;44470;53.206;-6.106;2022-11-15T00:24:53;98959.75;;;19.19;57.82
58690;BME280;44470;53.206;-6.106;2022-11-15T00:27:37;98972.94;;;19.22;57.71
58690;BME280;44470;53.206;-6.106;2022-11-15T00:30:21;98968.31;;;19.26;57.85
58690;BME280;44470;53.206;-6.106;2022-11-15T00:33:05;98959.63;;;19.22;57.79
58690;BME280;44470;53.206;-6.106;2022-11-15T00:35:50;98956.94;;;19.22;57.99
58690;BME280;44470;53.206;-6.106;2022-11-15T00:38:35;98951.53;;;19.24;57.93
58690;BME280;44470;53.206;-6.106;2022-11-15T00:41:20;98936.41;;;19.24;57.89
58690;BME280;44470;53.206;-6.106;2022-11-15T00:44:04;98932.94;;;19.22;57.79
58690;BME280;44470;53.206;-6.106;2022-11-15T00:46:47;98948.81;;;19.25;57.75
58690;BME280;44470;53.206;-6.106;2022-11-15T00:49:31;98931.91;;;19.25;57.98
58690;BME280;44470;53.206;-6.106;2022-11-15T00:52:15;98922.28;;;19.22;57.74
58690;BME280;44470;53.206;-6.106;2022-11-15T00:54:59;98915.13;;;19.23;57.80
58690;BME280;44470;53.206;-6.106;2022-11-15T00:57:43;98916.00;;;19.23;57.82
58690;BME280;44470;53.206;-6.106;2022-11-15T01:00:27;98900.06;;;19.22;57.98
58690;BME280;44470;53.206;-6.106;2022-11-15T01:03:12;98876.28;;;19.17;57.84
58690;BME280;44470;53.206;-6.106;2022-11-15T01:05:59;98892.00;;;19.23;57.95
58690;BME280;44470;53.206;-6.106;2022-11-15T01:08:43;98893.72;;;19.24;57.75
58690;BME280;44470;53.206;-6.106;2022-11-15T01:11:26;98884.78;;;19.25;57.95
58690;BME280;44470;53.206;-6.106;2022-11-15T01:14:10;98869.88;;;19.21;57.71
58690;BME280;44470;53.206;-6.106;2022-11-15T01:16:56;98857.63;;;19.17;58.00
58690;BME280;44470;53.206;-6.106;2022-11-15T01:19:40;98869.72;;;19.24;57.88
58690;BME280;44470;53.206;-6.106;2022-11-15T01:22:24;98867.06;;;19.24;57.79
58690;BME280;44470;53.206;-6.106;2022-11-15T01:25:08;98851.19;;;19.21;57.72
58690;BME280;44470;53.206;-6.106;2022-11-15T01:27:52;98852.00;;;19.23;57.89
58690;BME280;44470;53.206;-6.106;2022-11-15T01:30:36;98858.25;;;19.22;57.79
58690;BME280;44470;53.206;-6.106;2022-11-15T01:33:20;98823.88;;;19.16;58.08
58690;BME280;44470;53.206;-6.106;2022-11-15T01:36:05;98849.47;;;19.20;57.95
58690;BME280;44470;53.206;-6.106;2022-11-15T01:38:54;98830.66;;;19.23;57.86
58690;BME280;44470;53.206;-6.106;2022-11-15T01:41:39;98826.13;;;19.25;57.92
58690;BME280;44470;53.206;-6.106;2022-11-15T01:44:49;98816.53;;;19.21;57.98
58690;BME280;44470;53.206;-6.106;2022-11-15T01:47:40;98806.66;;;19.23;57.99
58690;BME280;44470;53.206;-6.106;2022-11-15T01:50:30;98794.25;;;19.22;57.97
58690;BME280;44470;53.206;-6.106;2022-11-15T01:53:16;98786.25;;;19.22;57.79
58690;BME280;44470;53.206;-6.106;2022-11-15T01:56:06;98783.59;;;19.22;57.77
58690;BME280;44470;53.206;-6.106;2022-11-15T01:58:55;98767.66;;;19.21;58.10
58690;BME280;44470;53.206;-6.106;2022-11-15T02:01:40;98780.13;;;19.20;58.29
58690;BME280;44470;53.206;-6.106;2022-11-15T02:04:37;98774.00;;;19.18;58.11
58690;BME280;44470;53.206;-6.106;2022-11-15T02:07:23;98776.69;;;19.18;58.00
58690;BME280;44470;53.206;-6.106;2022-11-15T02:10:10;98769.53;;;19.19;57.97
58690;BME280;44470;53.206;-6.106;2022-11-15T02:12:56;98784.53;;;19.21;57.98
58690;BME280;44470;53.206;-6.106;2022-11-15T02:15:52;98793.38;;;19.22;58.12
58690;BME280;44470;53.206;-6.106;2022-11-15T02:19:29;98860.00;;;19.23;58.10
58690;BME280;44470;53.206;-6.106;2022-11-15T02:22:17;98857.53;;;19.19;57.81
58690;BME280;44470;53.206;-6.106;2022-11-15T02:25:54;98852.28;;;19.17;58.13
58690;BME280;44470;53.206;-6.106;2022-11-15T02:35:07;98861.88;;;19.21;58.06
58690;BME280;44470;53.206;-6.106;2022-11-15T02:38:22;98861.88;;;19.21;58.35
58690;BME280;44470;53.206;-6.106;2022-11-15T02:41:11;98850.56;;;19.16;57.88
58690;BME280;44470;53.206;-6.106;2022-11-15T02:44:03;98855.59;;;19.22;57.86
58690;BME280;44470;53.206;-6.106;2022-11-15T02:47:02;98850.28;;;19.22;58.12
58690;BME280;44470;53.206;-6.106;2022-11-15T02:50:00;98853.78;;;19.23;57.87
58690;BME280;44470;53.206;-6.106;2022-11-15T02:52:46;98863.50;;;19.24;57.72
58690;BME280;44470;53.206;-6.106;2022-11-15T02:55:33;98868.00;;;19.23;57.87
58690;BME280;44470;53.206;-6.106;2022-11-15T03:04:56;98867.13;;;19.23;58.05
58690;BME280;44470;53.206;-6.106;2022-11-15T03:08:02;98872.41;;;19.24;57.76
58690;BME280;44470;53.206;-6.106;2022-11-15T03:11:09;98881.19;;;19.26;57.91
58690;BME280;44470;53.206;-6.106;2022-11-15T03:17:57;98873.34;;;19.23;58.03
58690;BME280;44470;53.206;-6.106;2022-11-15T03:20:21;98859.84;;;19.26;57.53
58690;BME280;44470;53.206;-6.106;2022-11-15T03:23:07;98870.53;;;19.26;57.92
58690;BME280;44470;53.206;-6.106;2022-11-15T03:25:52;98887.31;;;19.28;57.82
58690;BME280;44470;53.206;-6.106;2022-11-15T03:29:06;98886.53;;;19.26;57.86
58690;BME280;44470;53.206;-6.106;2022-11-15T03:31:57;98877.59;;;19.27;57.66
58690;BME280;44470;53.206;-6.106;2022-11-15T03:34:47;98892.69;;;19.27;57.47
58690;BME280;44470;53.206;-6.106;2022-11-15T03:37:59;98889.97;;;19.28;57.47
58690;BME280;44470;53.206;-6.106;2022-11-15T03:40:57;98884.50;;;19.31;57.25
58690;BME280;44470;53.206;-6.106;2022-11-15T03:43:57;98891.84;;;19.26;57.39
58690;BME280;44470;53.206;-6.106;2022-11-15T03:47:12;98895.53;;;19.24;57.56
58690;BME280;44470;53.206;-6.106;2022-11-15T03:50:02;98899.06;;;19.24;57.56
58690;BME280;44470;53.206;-6.106;2022-11-15T03:52:49;98883.50;;;19.15;57.53
58690;BME280;44470;53.206;-6.106;2022-11-15T03:55:33;98892.84;;;19.24;57.48
58690;BME280;44470;53.206;-6.106;2022-11-15T03:58:17;98893.88;;;19.21;57.79
58690;BME280;44470;53.206;-6.106;2022-11-15T04:01:01;98895.59;;;19.22;57.57
58690;BME280;44470;53.206;-6.106;2022-11-15T04:03:45;98899.13;;;19.23;57.52
58690;BME280;44470;53.206;-6.106;2022-11-15T04:06:29;98889.38;;;19.22;57.38
58690;BME280;44470;53.206;-6.106;2022-11-15T04:09:13;98886.66;;;19.23;57.77
58690;BME280;44470;53.206;-6.106;2022-11-15T04:11:57;98900.66;;;19.28;57.39
58690;BME280;44470;53.206;-6.106;2022-11-15T04:14:41;98897.34;;;19.23;57.57
58690;BME280;44470;53.206;-6.106;2022-11-15T04:17:50;98897.19;;;19.26;57.44
58690;BME280;44470;53.206;-6.106;2022-11-15T04:20:35;98876.28;;;19.17;57.47
58690;BME280;44470;53.206;-6.106;2022-11-15T04:23:56;98881.47;;;19.20;57.46
58690;BME280;44470;53.206;-6.106;2022-11-15T04:26:49;98879.75;;;19.19;57.62
58690;BME280;44470;53.206;-6.106;2022-11-15T04:29:33;98893.88;;;19.21;57.63
58690;BME280;44470;53.206;-6.106;2022-11-15T04:32:20;98889.38;;;19.22;57.60
58690;BME280;44470;53.206;-6.106;2022-11-15T04:35:04;98879.16;;;19.12;57.65
58690;BME280;44470;53.206;-6.106;2022-11-15T04:37:49;98895.47;;;19.25;57.53
58690;BME280;44470;53.206;-6.106;2022-11-15T04:40:33;98882.47;;;19.17;57.40
58690;BME280;44470;53.206;-6.106;2022-11-15T04:43:17;98892.94;;;19.22;57.42
58690;BME280;44470;53.206;-6.106;2022-11-15T04:46:01;98885.38;;;19.13;57.44
58690;BME280;44470;53.206;-6.106;2022-11-15T04:48:45;98914.41;;;19.19;57.35
58690;BME280;44470;53.206;-6.106;2022-11-15T04:51:29;98916.19;;;19.19;57.29
58690;BME280;44470;53.206;-6.106;2022-11-15T04:54:13;98922.31;;;19.21;57.31
58690;BME280;44470;53.206;-6.106;2022-11-15T04:56:57;98938.41;;;19.19;57.30
58690;BME280;44470;53.206;-6.106;2022-11-15T04:59:41;98939.41;;;19.16;57.55
58690;BME280;44470;53.206;-6.106;2022-11-15T05:02:25;98934.97;;;19.17;57.48
58690;BME280;44470;53.206;-6.106;2022-11-15T05:05:29;98913.81;;;19.12;57.43
58690;BME280;44470;53.206;-6.106;2022-11-15T05:08:13;98928.69;;;19.18;57.13
58690;BME280;44470;53.206;-6.106;2022-11-15T05:10:57;98923.41;;;19.16;57.58
58690;BME280;44470;53.206;-6.106;2022-11-15T05:13:41;98912.19;;;19.10;57.55
58690;BME280;44470;53.206;-6.106;2022-11-15T05:16:25;98926.03;;;19.18;57.53
58690;BME280;44470;53.206;-6.106;2022-11-15T05:19:09;98934.06;;;19.16;57.16
58690;BME280;44470;53.206;-6.106;2022-11-15T05:21:53;98940.56;;;19.11;57.35
58690;BME280;44470;53.206;-6.106;2022-11-15T05:24:37;98958.03;;;19.18;57.13
58690;BME280;44470;53.206;-6.106;2022-11-15T05:27:21;98951.88;;;19.16;57.38
58690;BME280;44470;53.206;-6.106;2022-11-15T05:30:05;98957.22;;;19.16;57.21
58690;BME280;44470;53.206;-6.106;2022-11-15T05:32:49;98959.91;;;19.16;57.47
58690;BME280;44470;53.206;-6.106;2022-11-15T05:35:40;98961.63;;;19.17;57.50
58690;BME280;44470;53.206;-6.106;2022-11-15T05:38:25;98957.22;;;19.16;57.27
58690;BME280;44470;53.206;-6.106;2022-11-15T05:41:10;98968.69;;;19.18;57.47
58690;BME280;44470;53.206;-6.106;2022-11-15T05:43:55;98981.28;;;19.14;57.25
58690;BME280;44470;53.206;-6.106;2022-11-15T05:46:40;98990.97;;;19.17;57.40
58690;BME280;44470;53.206;-6.106;2022-11-15T05:49:30;98983.00;;;19.15;57.53
58690;BME280;44470;53.206;-6.106;2022-11-15T05:52:17;98980.47;;;19.12;57.28
58690;BME280;44470;53.206;-6.106;2022-11-15T05:55:05;98968.97;;;19.12;57.37
58690;BME280;44470;53.206;-6.106;2022-11-15T05:57:49;98965.38;;;19.13;57.52
58690;BME280;44470;53.206;-6.106;2022-11-15T06:00:34;98976.03;;;19.13;57.57
58690;BME280;44470;53.206;-6.106;2022-11-15T06:03:18;98992.88;;;19.13;57.35
58690;BME280;44470;53.206;-6.106;2022-11-15T06:06:02;99001.91;;;19.11;57.50
58690;BME280;44470;53.206;-6.106;2022-11-15T06:08:45;99004.34;;;19.15;57.46
58690;BME280;44470;53.206;-6.106;2022-11-15T06:11:31;98998.22;;;19.13;57.25
58690;BME280;44470;53.206;-6.106;2022-11-15T06:14:15;98993.75;;;19.14;57.12
58690;BME280;44470;53.206;-6.106;2022-11-15T06:16:59;98982.22;;;19.13;57.20
58690;BME280;44470;53.206;-6.106;2022-11-15T06:19:43;98978.16;;;19.05;57.59
58690;BME280;44470;53.206;-6.106;2022-11-15T06:22:27;98981.50;;;19.10;57.52
58690;BME280;44470;53.206;-6.106;2022-11-15T06:25:11;98976.97;;;19.12;57.29
58690;BME280;44470;53.206;-6.106;2022-11-15T06:27:56;98979.63;;;19.12;57.21
58690;BME280;44470;53.206;-6.106;2022-11-15T06:30:41;98991.16;;;19.12;57.39
58690;BME280;44470;53.206;-6.106;2022-11-15T06:33:25;98981.38;;;19.13;57.50
58690;BME280;44470;53.206;-6.106;2022-11-15T06:36:10;98973.41;;;19.11;57.16
58690;BME280;44470;53.206;-6.106;2022-11-15T06:38:57;98973.56;;;19.08;57.33
58690;BME280;44470;53.206;-6.106;2022-11-15T06:41:41;98989.50;;;19.10;57.26
58690;BME280;44470;53.206;-6.106;2022-11-15T06:44:25;99011.75;;;19.09;57.33
58690;BME280;44470;53.206;-6.106;2022-11-15T06:47:09;99017.91;;;19.11;57.45
58690;BME280;44470;53.206;-6.106;2022-11-15T06:49:53;98997.41;;;19.11;57.16
58690;BME280;44470;53.206;-6.106;2022-11-15T06:52:37;98990.34;;;19.10;57.49
58690;BME280;44470;53.206;-6.106;2022-11-15T06:55:21;99003.75;;;19.09;57.62
58690;BME280;44470;53.206;-6.106;2022-11-15T06:58:05;99006.41;;;19.09;57.10
58690;BME280;44470;53.206;-6.106;2022-11-15T07:00:49;98998.00;;;18.97;57.49
58690;BME280;44470;53.206;-6.106;2022-11-15T07:03:40;99019.56;;;19.13;57.38
58690;BME280;44470;53.206;-6.106;2022-11-15T07:06:24;99041.06;;;19.09;57.38
58690;BME280;44470;53.206;-6.106;2022-11-15T07:09:08;99040.88;;;19.13;56.89
58690;BME280;44470;53.206;-6.106;2022-11-15T07:11:52;99045.38;;;19.13;57.27
58690;BME280;44470;53.206;-6.106;2022-11-15T07:14:36;99031.34;;;19.08;57.30
58690;BME280;44470;53.206;-6.106;2022-11-15T07:17:20;99009.34;;;19.02;57.44
58690;BME280;44470;53.206;-6.106;2022-11-15T07:20:04;99007.59;;;19.01;57.30
58690;BME280;44470;53.206;-6.106;2022-11-15T07:22:48;99027.72;;;19.09;57.46
58690;BME280;44470;53.206;-6.106;2022-11-15T07:25:33;99019.16;;;19.02;57.25
58690;BME280;44470;53.206;-6.106;2022-11-15T07:28:17;99033.06;;;19.09;57.09
58690;BME280;44470;53.206;-6.106;2022-11-15T07:31:07;99026.00;;;19.08;57.44
58690;BME280;44470;53.206;-6.106;2022-11-15T07:33:52;99002.94;;;19.07;57.05
58690;BME280;44470;53.206;-6.106;2022-11-15T07:36:36;99006.41;;;19.09;57.25
58690;BME280;44470;53.206;-6.106;2022-11-15T07:39:20;99014.41;;;19.09;57.22
58690;BME280;44470;53.206;-6.106;2022-11-15T07:42:04;99006.53;;;19.06;57.17
58690;BME280;44470;53.206;-6.106;2022-11-15T07:45:07;99008.41;;;19.03;57.39
58690;BME280;44470;53.206;-6.106;2022-11-15T07:47:52;99015.56;;;19.03;57.19
58690;BME280;44470;53.206;-6.106;2022-11-15T07:50:36;99014.81;;;18.99;57.48
58690;BME280;44470;53.206;-6.106;2022-11-15T07:53:20;98999.06;;;18.93;57.50
58690;BME280;44470;53.206;-6.106;2022-11-15T07:56:06;99009.47;;;18.99;57.17
58690;BME280;44470;53.206;-6.106;2022-11-15T07:58:51;99013.97;;;18.99;57.30
58690;BME280;44470;53.206;-6.106;2022-11-15T08:01:35;98999.19;;;18.90;57.23
58690;BME280;44470;53.206;-6.106;2022-11-15T08:04:19;99017.47;;;18.99;57.25
58690;BME280;44470;53.206;-6.106;2022-11-15T08:07:02;99024.53;;;19.00;56.85
58690;BME280;44470;53.206;-6.106;2022-11-15T08:09:46;99029.88;;;19.00;57.11
58690;BME280;44470;53.206;-6.106;2022-11-15T08:12:31;99017.56;;;18.98;57.18
58690;BME280;44470;53.206;-6.106;2022-11-15T08:15:15;99021.06;;;18.98;57.13
58690;BME280;44470;53.206;-6.106;2022-11-15T08:18:01;99041.06;;;19.09;56.96
58690;BME280;44470;53.206;-6.106;2022-11-15T08:20:45;99035.94;;;19.04;56.81
58690;BME280;44470;53.206;-6.106;2022-11-15T08:23:29;99041.28;;;19.04;56.89
58690;BME280;44470;53.206;-6.106;2022-11-15T08:26:14;99064.22;;;19.08;56.95
58690;BME280;44470;53.206;-6.106;2022-11-15T08:28:58;99058.84;;;19.10;56.96
58690;BME280;44470;53.206;-6.106;2022-11-15T08:31:42;99053.59;;;19.07;57.02
58690;BME280;44470;53.206;-6.106;2022-11-15T08:34:26;99057.00;;;19.10;56.64
58690;BME280;44470;53.206;-6.106;2022-11-15T08:37:10;99063.34;;;19.08;56.85
58690;BME280;44470;53.206;-6.106;2022-11-15T08:39:54;99063.34;;;19.08;56.70
58690;BME280;44470;53.206;-6.106;2022-11-15T08:42:38;99066.69;;;19.13;56.68
58690;BME280;44470;53.206;-6.106;2022-11-15T08:45:22;99059.72;;;19.09;56.74
58690;BME280;44470;53.206;-6.106;2022-11-15T08:48:06;99068.66;;;19.08;57.02
58690;BME280;44470;53.206;-6.106;2022-11-15T08:50:54;99064.53;;;19.00;56.84
58690;BME280;44470;53.206;-6.106;2022-11-15T08:53:39;99069.41;;;19.11;56.68
58690;BME280;44470;53.206;-6.106;2022-11-15T08:56:23;99063.22;;;19.11;56.48
58690;BME280;44470;53.206;-6.106;2022-11-15T08:59:07;99073.06;;;19.09;56.87
58690;BME280;44470;53.206;-6.106;2022-11-15T09:01:51;99072.16;;;19.10;56.70
58690;BME280;44470;53.206;-6.106;2022-11-15T09:04:35;99056.16;;;19.10;56.43
58690;BME280;44470;53.206;-6.106;2022-11-15T09:07:19;99047.34;;;19.08;56.80
58690;BME280;44470;53.206;-6.106;2022-11-15T09:10:03;99048.22;;;19.08;56.72
58690;BME280;44470;53.206;-6.106;2022-11-15T09:12:48;99038.31;;;19.12;56.71
58690;BME280;44470;53.206;-6.106;2022-11-15T09:15:32;99045.22;;;19.16;56.58
58690;BME280;44470;53.206;-6.106;2022-11-15T09:18:16;99039.75;;;19.19;56.36
58690;BME280;44470;53.206;-6.106;2022-11-15T09:21:00;99041.69;;;19.15;56.37
58690;BME280;44470;53.206;-6.106;2022-11-15T09:23:46;99027.63;;;19.12;56.66
58690;BME280;44470;53.206;-6.106;2022-11-15T09:26:30;99031.16;;;19.12;56.37
58690;BME280;44470;53.206;-6.106;2022-11-15T09:29:14;99024.28;;;19.07;56.47
58690;BME280;44470;53.206;-6.106;2022-11-15T09:31:58;99022.41;;;19.09;56.72
58690;BME280;44470;53.206;-6.106;2022-11-15T09:34:41;99019.06;;;19.03;56.44
58690;BME280;44470;53.206;-6.106;2022-11-15T09:37:25;99036.56;;;19.11;56.42
58690;BME280;44470;53.206;-6.106;2022-11-15T09:40:11;99035.53;;;19.13;56.53
58690;BME280;44470;53.206;-6.106;2022-11-15T09:49:12;99016.09;;;19.11;56.47
58690;BME280;44470;53.206;-6.106;2022-11-15T09:51:53;99009.63;;;19.17;56.44
58690;BME280;44470;53.206;-6.106;2022-11-15T09:54:33;99001.69;;;19.15;56.45
58690;BME280;44470;53.206;-6.106;2022-11-15T09:57:03;99002.69;;;19.13;56.35
58690;BME280;44470;53.206;-6.106;2022-11-15T09:59:54;99001.75;;;19.14;56.45
58690;BME280;44470;53.206;-6.106;2022-11-15T10:05:02;99010.00;;;19.08;56.60
58690;BME280;44470;53.206;-6.106;2022-11-15T10:07:46;99001.34;;;19.02;56.70
58690;BME280;44470;53.206;-6.106;2022-11-15T10:12:49;99015.59;;;19.01;56.78
58690;BME280;44470;53.206;-6.106;2022-11-15T10:15:17;99011.16;;;19.02;56.95
58690;BME280;44470;53.206;-6.106;2022-11-15T10:18:13;98990.34;;;18.90;56.78
58690;BME280;44470;53.206;-6.106;2022-11-15T10:23:14;99018.28;;;19.01;56.70
58690;BME280;44470;53.206;-6.106;2022-11-15T10:25:40;99012.94;;;19.01;56.84
58690;BME280;44470;53.206;-6.106;2022-11-15T10:28:26;99009.44;;;19.01;57.01
58690;BME280;44470;53.206;-6.106;2022-11-15T10:30:55;98997.09;;;18.98;56.68
58690;BME280;44470;53.206;-6.106;2022-11-15T10:41:19;99002.28;;;19.01;56.90
58690;BME280;44470;53.206;-6.106;2022-11-15T10:44:00;99001.22;;;19.06;56.96
58690;BME280;44470;53.206;-6.106;2022-11-15T10:46:26;99001.22;;;19.06;56.88
58690;BME280;44470;53.206;-6.106;2022-11-15T10:48:52;98985.59;;;18.96;57.06
58690;BME280;44470;53.206;-6.106;2022-11-15T10:51:24;99002.09;;;19.06;57.04
58690;BME280;44470;53.206;-6.106;2022-11-15T10:53:55;98990.41;;;19.09;56.89
58690;BME280;44470;53.206;-6.106;2022-11-15T10:56:22;98995.50;;;19.15;56.51
58690;BME280;44470;53.206;-6.106;2022-11-15T10:58:52;98995.94;;;19.25;55.90
58690;BME280;44470;53.206;-6.106;2022-11-15T11:01:22;98997.22;;;19.16;56.66
58690;BME280;44470;53.206;-6.106;2022-11-15T11:06:29;98981.38;;;19.13;56.66
58690;BME280;44470;53.206;-6.106;2022-11-15T11:08:58;98978.69;;;19.13;56.67
58690;BME280;44470;53.206;-6.106;2022-11-15T11:11:25;98982.97;;;19.17;56.60
58690;BME280;44470;53.206;-6.106;2022-11-15T11:14:13;98982.03;;;19.18;56.68
58690;BME280;44470;53.206;-6.106;2022-11-15T11:16:49;98982.81;;;19.20;56.46
58690;BME280;44470;53.206;-6.106;2022-11-15T11:20:00;98968.19;;;19.29;56.16
58690;BME280;44470;53.206;-6.106;2022-11-15T11:25:48;98962.69;;;19.32;56.11
58690;BME280;44470;53.206;-6.106;2022-11-15T11:31:20;98962.81;;;19.50;55.59
58690;BME280;44470;53.206;-6.106;2022-11-15T11:33:51;98954.59;;;19.54;55.53
58690;BME280;44470;53.206;-6.106;2022-11-15T11:36:39;98937.00;;;19.50;55.72
58690;BME280;44470;53.206;-6.106;2022-11-15T11:39:28;98947.47;;;19.55;55.66
58690;BME280;44470;53.206;-6.106;2022-11-15T11:47:23;98942.03;;;19.56;55.76
58690;BME280;44470;53.206;-6.106;2022-11-15T11:50:14;98935.50;;;19.64;55.24
58690;BME280;44470;53.206;-6.106;2022-11-15T11:53:09;98934.66;;;19.61;55.17
58690;BME280;44470;53.206;-6.106;2022-11-15T11:55:48;98940.69;;;19.67;55.29
58690;BME280;44470;53.206;-6.106;2022-11-15T11:58:23;98928.97;;;19.50;55.09
58690;BME280;44470;53.206;-6.106;2022-11-15T12:01:10;98941.78;;;19.63;55.38
58690;BME280;44470;53.206;-6.106;2022-11-15T12:06:27;98928.13;;;19.69;54.88
58690;BME280;44470;53.206;-6.106;2022-11-15T12:09:04;98920.63;;;19.77;54.77
58690;BME280;44470;53.206;-6.106;2022-11-15T12:12:02;98920.81;;;19.72;55.30
58690;BME280;44470;53.206;-6.106;2022-11-15T12:17:09;98918.13;;;19.93;54.33
58690;BME280;44470;53.206;-6.106;2022-11-15T12:19:35;98909.84;;;19.79;54.69
58690;BME280;44470;53.206;-6.106;2022-11-15T12:22:19;98910.88;;;19.76;54.53
58690;BME280;44470;53.206;-6.106;2022-11-15T12:25:02;98903.22;;;19.87;54.62
58690;BME280;44470;53.206;-6.106;2022-11-15T12:30:07;98900.06;;;19.98;53.99
58690;BME280;44470;53.206;-6.106;2022-11-15T12:32:37;98891.41;;;19.93;54.04
58690;BME280;44470;53.206;-6.106;2022-11-15T12:35:05;98881.84;;;19.87;53.91
58690;BME280;44470;53.206;-6.106;2022-11-15T12:42:56;98901.63;;;20.02;53.90
58690;BME280;44470;53.206;-6.106;2022-11-15T12:45:29;98888.44;;;19.99;53.69
58690;BME280;44470;53.206;-6.106;2022-11-15T13:06:55;98876.19;;;20.13;53.90
58690;BME280;44470;53.206;-6.106;2022-11-15T13:18:23;98870.53;;;20.01;53.93
58690;BME280;44470;53.206;-6.106;2022-11-15T13:28:09;98860.06;;;20.14;53.79
58690;BME280;44470;53.206;-6.106;2022-11-15T13:30:36;98859.00;;;20.18;53.60
58690;BME280;44470;53.206;-6.106;2022-11-15T13:33:13;98853.81;;;20.15;53.55
58690;BME280;44470;53.206;-6.106;2022-11-15T13:35:41;98841.38;;;20.14;53.67
58690;BME280;44470;53.206;-6.106;2022-11-15T13:38:18;98845.66;;;20.18;54.02
58690;BME280;44470;53.206;-6.106;2022-11-15T13:40:44;98848.31;;;20.18;53.44
58690;BME280;44470;53.206;-6.106;2022-11-15T13:48:33;98845.72;;;20.17;54.08
58690;BME280;44470;53.206;-6.106;2022-11-15T13:51:03;98847.44;;;20.18;53.83
58690;BME280;44470;53.206;-6.106;2022-11-15T13:53:32;98846.59;;;20.17;53.69
58690;BME280;44470;53.206;-6.106;2022-11-15T13:55:58;98839.72;;;20.29;53.53
58690;BME280;44470;53.206;-6.106;2022-11-15T13:58:24;98841.16;;;20.19;53.78
58690;BME280;44470;53.206;-6.106;2022-11-15T14:01:00;98836.59;;;20.21;53.56
58690;BME280;44470;53.206;-6.106;2022-11-15T14:03:29;98834.09;;;20.18;53.61
58690;BME280;44470;53.206;-6.106;2022-11-15T14:06:16;98824.91;;;20.24;53.88
58690;BME280;44470;53.206;-6.106;2022-11-15T14:12:31;98826.94;;;20.18;53.78
58690;BME280;44470;53.206;-6.106;2022-11-15T14:14:59;98824.91;;;20.24;53.81
58690;BME280;44470;53.206;-6.106;2022-11-15T14:19:53;98820.94;;;20.13;54.05
58690;BME280;44470;53.206;-6.106;2022-11-15T14:22:22;98830.56;;;20.17;54.08
58690;BME280;44470;53.206;-6.106;2022-11-15T14:25:14;98818.06;;;20.18;53.66
58690;BME280;44470;53.206;-6.106;2022-11-15T14:27:43;98821.63;;;20.18;53.93
58690;BME280;44470;53.206;-6.106;2022-11-15T14:30:16;98812.81;;;20.16;53.74
58690;BME280;44470;53.206;-6.106;2022-11-15T14:32:49;98807.16;;;20.23;53.53
58690;BME280;44470;53.206;-6.106;2022-11-15T14:35:19;98812.50;;;20.23;53.84
58690;BME280;44470;53.206;-6.106;2022-11-15T14:37:45;98812.97;;;20.31;53.49
58690;BME280;44470;53.206;-6.106;2022-11-15T14:40:16;98799.47;;;20.16;53.78
58690;BME280;44470;53.206;-6.106;2022-11-15T14:42:44;98804.16;;;20.29;53.82
58690;BME280;44470;53.206;-6.106;2022-11-15T14:45:15;98807.31;;;20.20;54.23
58690;BME280;44470;53.206;-6.106;2022-11-15T14:47:42;98801.97;;;20.20;54.07
58690;BME280;44470;53.206;-6.106;2022-11-15T14:50:21;98802.59;;;20.25;53.91
58690;BME280;44470;53.206;-6.106;2022-11-15T14:52:48;98799.03;;;20.24;53.53
58690;BME280;44470;53.206;-6.106;2022-11-15T14:55:20;98799.75;;;20.28;53.38
58690;BME280;44470;53.206;-6.106;2022-11-15T14:57:46;98793.00;;;20.21;53.96
58690;BME280;44470;53.206;-6.106;2022-11-15T15:00:12;98788.50;;;20.21;54.21
58690;BME280;44470;53.206;-6.106;2022-11-15T15:02:39;98788.91;;;20.31;53.71
58690;BME280;44470;53.206;-6.106;2022-11-15T15:05:14;98786.25;;;20.31;53.31
58690;BME280;44470;53.206;-6.106;2022-11-15T15:07:40;98785.28;;;20.32;53.57
58690;BME280;44470;53.206;-6.106;2022-11-15T15:10:05;98784.50;;;20.12;53.90
58690;BME280;44470;53.206;-6.106;2022-11-15T15:12:31;98787.97;;;20.14;54.03
58690;BME280;44470;53.206;-6.106;2022-11-15T15:14:56;98789.13;;;20.26;54.18
58690;BME280;44470;53.206;-6.106;2022-11-15T15:17:22;98783.81;;;20.09;54.29
58690;BME280;44470;53.206;-6.106;2022-11-15T15:19:47;98789.22;;;20.25;54.01
58690;BME280;44470;53.206;-6.106;2022-11-15T15:22:16;98785.53;;;20.27;53.88
58690;BME280;44470;53.206;-6.106;2022-11-15T15:24:43;98779.47;;;20.41;53.62
58690;BME280;44470;53.206;-6.106;2022-11-15T15:27:09;98776.75;;;20.08;54.44
58690;BME280;44470;53.206;-6.106;2022-11-15T15:29:34;98772.88;;;20.13;54.09
58690;BME280;44470;53.206;-6.106;2022-11-15T15:32:00;98767.47;;;20.15;54.41
58690;BME280;44470;53.206;-6.106;2022-11-15T15:34:25;98771.66;;;20.21;54.15
58690;BME280;44470;53.206;-6.106;2022-11-15T15:39:49;98770.53;;;20.25;54.08
58690;BME280;44470;53.206;-6.106;2022-11-15T15:42:15;98762.94;;;19.99;54.35
58690;BME280;44470;53.206;-6.106;2022-11-15T15:44:40;98779.53;;;19.87;55.06
58690;BME280;44470;53.206;-6.106;2022-11-15T15:47:23;98778.06;;;19.99;54.67
58690;BME280;44470;53.206;-6.106;2022-11-15T15:49:49;98777.44;;;20.11;54.65
58690;BME280;44470;53.206;-6.106;2022-11-15T15:52:16;98775.34;;;20.00;54.62
58690;BME280;44470;53.206;-6.106;2022-11-15T15:54:41;98774.63;;;19.97;54.81
58690;BME280;44470;53.206;-6.106;2022-11-15T15:57:13;98778.53;;;19.89;54.97
58690;BME280;44470;53.206;-6.106;2022-11-15T15:59:39;98777.44;;;19.94;55.08
58690;BME280;44470;53.206;-6.106;2022-11-15T16:02:05;98762.38;;;19.93;54.58